sensor_id;sensor_type;location;lat;lon;timestamp;P1;durP1;ratioP1;P2;durP2;ratioP2
22256;SDS011;11297;42.686;23.374;2022-08-04T00:01:30;6.23;;;5.37;;
22256;SDS011;11297;42.686;23.374;2022-08-04T00:06:52;7.40;;;5.50;;
22256;SDS011;11297;42.686;23.374;2022-08-04T00:09:48;6.83;;;5.47;;
22256;SDS011;11297;42.686;23.374;2022-08-04T00:12:17;5.90;;;5.40;;
22256;SDS011;11297;42.686;23.374;2022-08-04T00:14:49;6.73;;;5.30;;
22256;SDS011;11297;42.686;23.374;2022-08-04T00:17:19;6.20;;;5.60;;
22256;SDS011;11297;42.686;23.374;2022-08-04T00:19:52;5.10;;;4.60;;
22256;SDS011;11297;42.686;23.374;2022-08-04T00:22:27;5.67;;;4.87;;
22256;SDS011;11297;42.686;23.374;2022-08-04T00:24:54;5.67;;;5.03;;
22256;SDS011;11297;42.686;23.374;2022-08-04T00:27:21;6.47;;;4.73;;
22256;SDS011;11297;42.686;23.374;2022-08-04T00:29:46;9.30;;;4.73;;
22256;SDS011;11297;42.686;23.374;2022-08-04T00:32:13;5.27;;;4.77;;
22256;SDS011;11297;42.686;23.374;2022-08-04T00:34:38;5.10;;;4.60;;
22256;SDS011;11297;42.686;23.374;2022-08-04T00:37:05;5.30;;;4.80;;
22256;SDS011;11297;42.686;23.374;2022-08-04T00:39:31;6.50;;;4.60;;
22256;SDS011;11297;42.686;23.374;2022-08-04T00:53:05;4.63;;;3.60;;
22256;SDS011;11297;42.686;23.374;2022-08-04T01:01:18;4.17;;;3.50;;
22256;SDS011;11297;42.686;23.374;2022-08-04T01:18:03;4.07;;;3.50;;
22256;SDS011;11297;42.686;23.374;2022-08-04T01:20:36;4.00;;;3.10;;
22256;SDS011;11297;42.686;23.374;2022-08-04T01:29:05;5.53;;;3.83;;
22256;SDS011;11297;42.686;23.374;2022-08-04T01:31:47;5.43;;;3.90;;
22256;SDS011;11297;42.686;23.374;2022-08-04T01:34:21;5.03;;;4.20;;
22256;SDS011;11297;42.686;23.374;2022-08-04T01:37:04;4.13;;;3.83;;
22256;SDS011;11297;42.686;23.374;2022-08-04T01:39:36;3.90;;;3.50;;
22256;SDS011;11297;42.686;23.374;2022-08-04T01:42:10;7.53;;;4.30;;
22256;SDS011;11297;42.686;23.374;2022-08-04T01:44:38;4.83;;;3.17;;
22256;SDS011;11297;42.686;23.374;2022-08-04T01:47:05;5.20;;;4.57;;
22256;SDS011;11297;42.686;23.374;2022-08-04T01:49:32;6.77;;;3.90;;
22256;SDS011;11297;42.686;23.374;2022-08-04T01:51:58;4.93;;;3.77;;
22256;SDS011;11297;42.686;23.374;2022-08-04T01:54:25;6.30;;;4.40;;
22256;SDS011;11297;42.686;23.374;2022-08-04T01:56:52;4.20;;;3.80;;
22256;SDS011;11297;42.686;23.374;2022-08-04T01:59:20;6.80;;;4.50;;
22256;SDS011;11297;42.686;23.374;2022-08-04T02:01:46;7.60;;;4.77;;
22256;SDS011;11297;42.686;23.374;2022-08-04T02:04:13;5.13;;;4.70;;
22256;SDS011;11297;42.686;23.374;2022-08-04T02:06:43;8.47;;;5.57;;
22256;SDS011;11297;42.686;23.374;2022-08-04T02:12:18;6.60;;;4.27;;
22256;SDS011;11297;42.686;23.374;2022-08-04T02:20:08;7.03;;;6.03;;
22256;SDS011;11297;42.686;23.374;2022-08-04T02:22:52;7.30;;;4.90;;
22256;SDS011;11297;42.686;23.374;2022-08-04T02:25:24;5.80;;;4.93;;
22256;SDS011;11297;42.686;23.374;2022-08-04T02:30:49;8.93;;;5.23;;
22256;SDS011;11297;42.686;23.374;2022-08-04T02:33:23;5.73;;;4.73;;
22256;SDS011;11297;42.686;23.374;2022-08-04T02:35:56;5.90;;;5.17;;
22256;SDS011;11297;42.686;23.374;2022-08-04T02:38:44;8.03;;;5.13;;
22256;SDS011;11297;42.686;23.374;2022-08-04T02:41:18;7.97;;;5.43;;
22256;SDS011;11297;42.686;23.374;2022-08-04T02:43:46;5.67;;;4.20;;
22256;SDS011;11297;42.686;23.374;2022-08-04T02:46:14;7.17;;;5.90;;
22256;SDS011;11297;42.686;23.374;2022-08-04T02:48:42;6.33;;;5.70;;
22256;SDS011;11297;42.686;23.374;2022-08-04T02:51:11;9.87;;;6.23;;
22256;SDS011;11297;42.686;23.374;2022-08-04T02:53:38;6.73;;;5.87;;
22256;SDS011;11297;42.686;23.374;2022-08-04T02:56:05;7.10;;;5.00;;
22256;SDS011;11297;42.686;23.374;2022-08-04T02:58:33;6.90;;;5.73;;
22256;SDS011;11297;42.686;23.374;2022-08-04T03:00:59;5.37;;;4.87;;
22256;SDS011;11297;42.686;23.374;2022-08-04T03:17:47;8.27;;;6.60;;
22256;SDS011;11297;42.686;23.374;2022-08-04T03:35:13;7.60;;;6.77;;
22256;SDS011;11297;42.686;23.374;2022-08-04T03:54:21;7.57;;;6.40;;
22256;SDS011;11297;42.686;23.374;2022-08-04T04:00:17;8.40;;;6.47;;
22256;SDS011;11297;42.686;23.374;2022-08-04T04:06:29;8.53;;;5.03;;
22256;SDS011;11297;42.686;23.374;2022-08-04T04:30:22;8.10;;;6.20;;
22256;SDS011;11297;42.686;23.374;2022-08-04T04:32:58;6.73;;;5.67;;
22256;SDS011;11297;42.686;23.374;2022-08-04T04:41:04;7.90;;;6.27;;
22256;SDS011;11297;42.686;23.374;2022-08-04T04:46:40;5.83;;;5.20;;
22256;SDS011;11297;42.686;23.374;2022-08-04T04:54:54;8.23;;;7.13;;
22256;SDS011;11297;42.686;23.374;2022-08-04T04:57:24;8.67;;;7.33;;
22256;SDS011;11297;42.686;23.374;2022-08-04T04:59:58;5.60;;;4.63;;
22256;SDS011;11297;42.686;23.374;2022-08-04T05:16:06;6.90;;;6.27;;
22256;SDS011;11297;42.686;23.374;2022-08-04T05:18:41;15.10;;;11.10;;
22256;SDS011;11297;42.686;23.374;2022-08-04T05:21:25;14.90;;;11.60;;
22256;SDS011;11297;42.686;23.374;2022-08-04T05:24:02;8.37;;;7.67;;
22256;SDS011;11297;42.686;23.374;2022-08-04T05:26:33;9.50;;;7.33;;
22256;SDS011;11297;42.686;23.374;2022-08-04T05:29:05;7.70;;;4.77;;
22256;SDS011;11297;42.686;23.374;2022-08-04T05:31:35;9.67;;;6.27;;
22256;SDS011;11297;42.686;23.374;2022-08-04T05:36:47;8.73;;;5.00;;
22256;SDS011;11297;42.686;23.374;2022-08-04T05:39:18;11.97;;;7.87;;
22256;SDS011;11297;42.686;23.374;2022-08-04T05:41:46;7.73;;;7.03;;
22256;SDS011;11297;42.686;23.374;2022-08-04T05:44:16;11.47;;;7.53;;
22256;SDS011;11297;42.686;23.374;2022-08-04T05:46:44;9.63;;;7.20;;
22256;SDS011;11297;42.686;23.374;2022-08-04T05:49:12;7.83;;;7.07;;
22256;SDS011;11297;42.686;23.374;2022-08-04T05:51:38;24.50;;;16.10;;
22256;SDS011;11297;42.686;23.374;2022-08-04T05:54:05;40.27;;;24.43;;
22256;SDS011;11297;42.686;23.374;2022-08-04T05:56:33;14.57;;;10.77;;
22256;SDS011;11297;42.686;23.374;2022-08-04T05:59:00;16.27;;;11.03;;
22256;SDS011;11297;42.686;23.374;2022-08-04T06:01:27;57.73;;;34.47;;
22256;SDS011;11297;42.686;23.374;2022-08-04T06:03:54;52.93;;;28.97;;
22256;SDS011;11297;42.686;23.374;2022-08-04T06:06:22;42.73;;;26.77;;
22256;SDS011;11297;42.686;23.374;2022-08-04T06:08:49;18.33;;;10.10;;
22256;SDS011;11297;42.686;23.374;2022-08-04T06:11:15;30.77;;;20.70;;
22256;SDS011;11297;42.686;23.374;2022-08-04T06:13:43;13.03;;;9.83;;
22256;SDS011;11297;42.686;23.374;2022-08-04T06:16:15;27.00;;;19.13;;
22256;SDS011;11297;42.686;23.374;2022-08-04T06:18:44;15.60;;;11.73;;
22256;SDS011;11297;42.686;23.374;2022-08-04T06:21:13;16.53;;;11.37;;
22256;SDS011;11297;42.686;23.374;2022-08-04T06:23:41;9.40;;;8.47;;
22256;SDS011;11297;42.686;23.374;2022-08-04T06:26:08;11.00;;;9.30;;
22256;SDS011;11297;42.686;23.374;2022-08-04T06:28:43;14.50;;;10.43;;
22256;SDS011;11297;42.686;23.374;2022-08-04T06:31:13;19.30;;;11.60;;
22256;SDS011;11297;42.686;23.374;2022-08-04T06:33:46;11.63;;;7.73;;
22256;SDS011;11297;42.686;23.374;2022-08-04T06:36:14;9.70;;;8.17;;
22256;SDS011;11297;42.686;23.374;2022-08-04T06:38:40;10.83;;;9.43;;
22256;SDS011;11297;42.686;23.374;2022-08-04T06:41:06;12.57;;;7.70;;
22256;SDS011;11297;42.686;23.374;2022-08-04T06:43:33;11.20;;;8.70;;
22256;SDS011;11297;42.686;23.374;2022-08-04T06:46:01;9.40;;;7.90;;
22256;SDS011;11297;42.686;23.374;2022-08-04T06:48:28;14.10;;;8.27;;
22256;SDS011;11297;42.686;23.374;2022-08-04T06:50:56;11.83;;;8.17;;
22256;SDS011;11297;42.686;23.374;2022-08-04T06:53:23;9.17;;;8.27;;
22256;SDS011;11297;42.686;23.374;2022-08-04T06:55:49;10.17;;;9.03;;
22256;SDS011;11297;42.686;23.374;2022-08-04T06:58:17;11.47;;;8.70;;
22256;SDS011;11297;42.686;23.374;2022-08-04T07:00:45;12.37;;;9.97;;
22256;SDS011;11297;42.686;23.374;2022-08-04T07:03:11;12.67;;;8.83;;
22256;SDS011;11297;42.686;23.374;2022-08-04T07:05:39;12.77;;;7.00;;
22256;SDS011;11297;42.686;23.374;2022-08-04T07:08:05;18.27;;;12.03;;
22256;SDS011;11297;42.686;23.374;2022-08-04T07:10:31;11.80;;;10.03;;
22256;SDS011;11297;42.686;23.374;2022-08-04T07:12:58;14.20;;;10.80;;
22256;SDS011;11297;42.686;23.374;2022-08-04T07:15:25;15.80;;;11.00;;
22256;SDS011;11297;42.686;23.374;2022-08-04T07:17:53;14.00;;;10.77;;
22256;SDS011;11297;42.686;23.374;2022-08-04T07:20:20;16.33;;;10.57;;
22256;SDS011;11297;42.686;23.374;2022-08-04T07:22:47;12.33;;;10.13;;
22256;SDS011;11297;42.686;23.374;2022-08-04T07:25:13;11.00;;;9.87;;
22256;SDS011;11297;42.686;23.374;2022-08-04T07:27:40;17.00;;;10.00;;
22256;SDS011;11297;42.686;23.374;2022-08-04T07:30:07;11.33;;;9.30;;
22256;SDS011;11297;42.686;23.374;2022-08-04T07:32:33;12.00;;;9.93;;
22256;SDS011;11297;42.686;23.374;2022-08-04T07:34:58;15.20;;;9.50;;
22256;SDS011;11297;42.686;23.374;2022-08-04T07:37:25;9.70;;;8.43;;
22256;SDS011;11297;42.686;23.374;2022-08-04T07:39:51;10.73;;;8.70;;
22256;SDS011;11297;42.686;23.374;2022-08-04T07:42:17;13.33;;;9.03;;
22256;SDS011;11297;42.686;23.374;2022-08-04T07:44:44;12.63;;;9.17;;
22256;SDS011;11297;42.686;23.374;2022-08-04T07:47:10;9.63;;;8.00;;
22256;SDS011;11297;42.686;23.374;2022-08-04T07:49:36;9.10;;;8.13;;
22256;SDS011;11297;42.686;23.374;2022-08-04T07:52:02;10.03;;;8.30;;
22256;SDS011;11297;42.686;23.374;2022-08-04T07:54:28;14.53;;;9.37;;
22256;SDS011;11297;42.686;23.374;2022-08-04T07:56:54;11.70;;;6.83;;
22256;SDS011;11297;42.686;23.374;2022-08-04T07:59:21;10.33;;;8.83;;
22256;SDS011;11297;42.686;23.374;2022-08-04T08:01:46;13.97;;;6.83;;
22256;SDS011;11297;42.686;23.374;2022-08-04T08:04:12;10.33;;;8.97;;
22256;SDS011;11297;42.686;23.374;2022-08-04T08:06:39;11.80;;;7.97;;
22256;SDS011;11297;42.686;23.374;2022-08-04T08:09:17;14.33;;;7.77;;
22256;SDS011;11297;42.686;23.374;2022-08-04T08:11:46;15.93;;;7.67;;
22256;SDS011;11297;42.686;23.374;2022-08-04T08:14:13;8.10;;;7.23;;
22256;SDS011;11297;42.686;23.374;2022-08-04T08:16:40;10.43;;;7.50;;
22256;SDS011;11297;42.686;23.374;2022-08-04T08:19:06;12.17;;;7.97;;
22256;SDS011;11297;42.686;23.374;2022-08-04T08:21:31;12.60;;;7.77;;
22256;SDS011;11297;42.686;23.374;2022-08-04T08:23:57;10.07;;;7.27;;
22256;SDS011;11297;42.686;23.374;2022-08-04T08:26:23;9.50;;;7.40;;
22256;SDS011;11297;42.686;23.374;2022-08-04T08:28:49;9.40;;;6.80;;
22256;SDS011;11297;42.686;23.374;2022-08-04T08:31:15;7.60;;;6.80;;
22256;SDS011;11297;42.686;23.374;2022-08-04T08:33:41;8.20;;;6.50;;
22256;SDS011;11297;42.686;23.374;2022-08-04T08:36:18;10.50;;;6.20;;
22256;SDS011;11297;42.686;23.374;2022-08-04T08:39:04;7.13;;;5.87;;
22256;SDS011;11297;42.686;23.374;2022-08-04T08:47:26;8.30;;;6.33;;
22256;SDS011;11297;42.686;23.374;2022-08-04T08:50:01;5.77;;;5.27;;
22256;SDS011;11297;42.686;23.374;2022-08-04T08:55:51;7.67;;;5.83;;
22256;SDS011;11297;42.686;23.374;2022-08-04T09:03:59;8.37;;;4.57;;
22256;SDS011;11297;42.686;23.374;2022-08-04T09:09:08;6.67;;;4.57;;
22256;SDS011;11297;42.686;23.374;2022-08-04T09:12:07;9.40;;;5.10;;
22256;SDS011;11297;42.686;23.374;2022-08-04T09:14:52;8.17;;;4.20;;
22256;SDS011;11297;42.686;23.374;2022-08-04T09:20:55;8.17;;;5.30;;
22256;SDS011;11297;42.686;23.374;2022-08-04T09:26:00;8.23;;;5.53;;
22256;SDS011;11297;42.686;23.374;2022-08-04T09:31:21;9.43;;;5.27;;
22256;SDS011;11297;42.686;23.374;2022-08-04T09:44:27;8.17;;;5.07;;
22256;SDS011;11297;42.686;23.374;2022-08-04T09:47:04;6.17;;;4.63;;
22256;SDS011;11297;42.686;23.374;2022-08-04T09:49:39;6.00;;;3.57;;
22256;SDS011;11297;42.686;23.374;2022-08-04T09:52:26;5.43;;;3.67;;
22256;SDS011;11297;42.686;23.374;2022-08-04T09:57:40;5.33;;;3.80;;
22256;SDS011;11297;42.686;23.374;2022-08-04T10:00:24;5.73;;;4.47;;
22256;SDS011;11297;42.686;23.374;2022-08-04T10:02:54;3.63;;;3.33;;
22256;SDS011;11297;42.686;23.374;2022-08-04T10:05:24;9.07;;;3.50;;
22256;SDS011;11297;42.686;23.374;2022-08-04T10:08:01;6.37;;;3.93;;
22256;SDS011;11297;42.686;23.374;2022-08-04T10:11:13;5.87;;;3.70;;
22256;SDS011;11297;42.686;23.374;2022-08-04T10:13:51;4.73;;;3.40;;
22256;SDS011;11297;42.686;23.374;2022-08-04T10:16:31;4.63;;;3.17;;
22256;SDS011;11297;42.686;23.374;2022-08-04T10:21:57;5.20;;;3.60;;
22256;SDS011;11297;42.686;23.374;2022-08-04T10:27:42;7.13;;;4.00;;
22256;SDS011;11297;42.686;23.374;2022-08-04T10:30:13;7.50;;;3.93;;
22256;SDS011;11297;42.686;23.374;2022-08-04T10:32:43;8.33;;;4.53;;
22256;SDS011;11297;42.686;23.374;2022-08-04T10:35:16;7.80;;;3.93;;
22256;SDS011;11297;42.686;23.374;2022-08-04T10:43:54;5.93;;;3.40;;
22256;SDS011;11297;42.686;23.374;2022-08-04T10:46:35;5.47;;;4.07;;
22256;SDS011;11297;42.686;23.374;2022-08-04T10:49:08;6.17;;;3.87;;
22256;SDS011;11297;42.686;23.374;2022-08-04T10:51:41;3.93;;;3.53;;
22256;SDS011;11297;42.686;23.374;2022-08-04T10:54:24;8.40;;;3.40;;
22256;SDS011;11297;42.686;23.374;2022-08-04T10:56:57;5.83;;;3.57;;
22256;SDS011;11297;42.686;23.374;2022-08-04T10:59:42;3.80;;;3.50;;
22256;SDS011;11297;42.686;23.374;2022-08-04T11:02:24;5.27;;;3.60;;
22256;SDS011;11297;42.686;23.374;2022-08-04T11:05:03;4.60;;;2.90;;
22256;SDS011;11297;42.686;23.374;2022-08-04T11:07:36;4.30;;;2.93;;
22256;SDS011;11297;42.686;23.374;2022-08-04T11:10:05;5.37;;;2.73;;
22256;SDS011;11297;42.686;23.374;2022-08-04T11:12:32;3.93;;;3.00;;
22256;SDS011;11297;42.686;23.374;2022-08-04T11:15:00;4.37;;;2.80;;
22256;SDS011;11297;42.686;23.374;2022-08-04T11:17:30;4.10;;;2.60;;
22256;SDS011;11297;42.686;23.374;2022-08-04T11:23:07;3.10;;;2.57;;
22256;SDS011;11297;42.686;23.374;2022-08-04T11:31:24;2.80;;;2.60;;
22256;SDS011;11297;42.686;23.374;2022-08-04T11:36:20;2.57;;;2.37;;
22256;SDS011;11297;42.686;23.374;2022-08-04T11:39:17;4.87;;;2.80;;
22256;SDS011;11297;42.686;23.374;2022-08-04T11:42:04;5.83;;;2.63;;
22256;SDS011;11297;42.686;23.374;2022-08-04T11:44:48;3.10;;;2.60;;
22256;SDS011;11297;42.686;23.374;2022-08-04T11:49:52;2.80;;;2.50;;
22256;SDS011;11297;42.686;23.374;2022-08-04T11:52:26;4.20;;;2.80;;
22256;SDS011;11297;42.686;23.374;2022-08-04T11:54:53;5.07;;;2.83;;
22256;SDS011;11297;42.686;23.374;2022-08-04T11:57:19;4.57;;;3.00;;
22256;SDS011;11297;42.686;23.374;2022-08-04T11:59:45;2.60;;;2.40;;
22256;SDS011;11297;42.686;23.374;2022-08-04T12:04:57;2.70;;;2.20;;
22256;SDS011;11297;42.686;23.374;2022-08-04T12:15:37;2.40;;;2.20;;
22256;SDS011;11297;42.686;23.374;2022-08-04T12:18:37;2.87;;;2.30;;
22256;SDS011;11297;42.686;23.374;2022-08-04T12:21:09;3.13;;;2.80;;
22256;SDS011;11297;42.686;23.374;2022-08-04T12:23:38;2.60;;;2.40;;
22256;SDS011;11297;42.686;23.374;2022-08-04T12:26:06;2.47;;;2.27;;
22256;SDS011;11297;42.686;23.374;2022-08-04T12:28:36;3.73;;;2.20;;
22256;SDS011;11297;42.686;23.374;2022-08-04T12:34:07;2.47;;;2.27;;
22256;SDS011;11297;42.686;23.374;2022-08-04T12:37:43;4.47;;;2.80;;
22256;SDS011;11297;42.686;23.374;2022-08-04T12:39:55;2.50;;;2.30;;
22256;SDS011;11297;42.686;23.374;2022-08-04T12:42:27;2.53;;;2.33;;
22256;SDS011;11297;42.686;23.374;2022-08-04T12:45:07;3.13;;;2.70;;
22256;SDS011;11297;42.686;23.374;2022-08-04T12:47:34;3.03;;;2.73;;
22256;SDS011;11297;42.686;23.374;2022-08-04T12:50:02;2.50;;;2.30;;
22256;SDS011;11297;42.686;23.374;2022-08-04T12:52:32;2.90;;;2.70;;
22256;SDS011;11297;42.686;23.374;2022-08-04T12:55:05;3.40;;;2.60;;
22256;SDS011;11297;42.686;23.374;2022-08-04T12:57:32;2.73;;;2.40;;
22256;SDS011;11297;42.686;23.374;2022-08-04T12:59:59;4.10;;;2.77;;
22256;SDS011;11297;42.686;23.374;2022-08-04T13:02:29;2.70;;;2.50;;
22256;SDS011;11297;42.686;23.374;2022-08-04T13:04:58;3.00;;;2.50;;
22256;SDS011;11297;42.686;23.374;2022-08-04T13:07:27;2.80;;;2.47;;
22256;SDS011;11297;42.686;23.374;2022-08-04T13:10:10;3.87;;;2.53;;
22256;SDS011;11297;42.686;23.374;2022-08-04T13:12:37;4.47;;;2.60;;
22256;SDS011;11297;42.686;23.374;2022-08-04T13:15:10;2.73;;;2.30;;
22256;SDS011;11297;42.686;23.374;2022-08-04T13:17:55;5.03;;;4.23;;
22256;SDS011;11297;42.686;23.374;2022-08-04T13:20:28;7.30;;;2.73;;
22256;SDS011;11297;42.686;23.374;2022-08-04T13:25:48;3.10;;;2.60;;
22256;SDS011;11297;42.686;23.374;2022-08-04T13:28:19;2.80;;;2.60;;
22256;SDS011;11297;42.686;23.374;2022-08-04T13:30:48;2.70;;;2.50;;
22256;SDS011;11297;42.686;23.374;2022-08-04T13:33:19;3.53;;;2.67;;
22256;SDS011;11297;42.686;23.374;2022-08-04T13:35:46;4.37;;;2.50;;
22256;SDS011;11297;42.686;23.374;2022-08-04T13:38:13;2.70;;;2.50;;
22256;SDS011;11297;42.686;23.374;2022-08-04T13:40:41;2.93;;;2.50;;
22256;SDS011;11297;42.686;23.374;2022-08-04T13:43:08;2.33;;;2.23;;
22256;SDS011;11297;42.686;23.374;2022-08-04T13:45:37;2.80;;;2.60;;
22256;SDS011;11297;42.686;23.374;2022-08-04T13:48:05;2.70;;;2.50;;
22256;SDS011;11297;42.686;23.374;2022-08-04T13:50:32;3.00;;;2.70;;
22256;SDS011;11297;42.686;23.374;2022-08-04T13:52:59;2.70;;;2.47;;
22256;SDS011;11297;42.686;23.374;2022-08-04T13:55:30;2.63;;;2.43;;
22256;SDS011;11297;42.686;23.374;2022-08-04T14:00:40;3.70;;;2.50;;
22256;SDS011;11297;42.686;23.374;2022-08-04T14:03:28;3.10;;;2.80;;
22256;SDS011;11297;42.686;23.374;2022-08-04T14:06:07;2.93;;;2.60;;
22256;SDS011;11297;42.686;23.374;2022-08-04T14:08:56;2.90;;;2.57;;
22256;SDS011;11297;42.686;23.374;2022-08-04T14:11:32;2.90;;;2.70;;
22256;SDS011;11297;42.686;23.374;2022-08-04T14:13:57;3.30;;;2.77;;
22256;SDS011;11297;42.686;23.374;2022-08-04T14:16:24;3.00;;;2.80;;
22256;SDS011;11297;42.686;23.374;2022-08-04T14:18:59;2.70;;;2.50;;
22256;SDS011;11297;42.686;23.374;2022-08-04T14:21:26;3.53;;;2.90;;
22256;SDS011;11297;42.686;23.374;2022-08-04T14:23:55;5.50;;;3.07;;
22256;SDS011;11297;42.686;23.374;2022-08-04T14:26:28;3.93;;;2.80;;
22256;SDS011;11297;42.686;23.374;2022-08-04T14:29:05;3.43;;;2.90;;
22256;SDS011;11297;42.686;23.374;2022-08-04T14:31:38;3.83;;;3.40;;
22256;SDS011;11297;42.686;23.374;2022-08-04T14:34:05;3.17;;;2.97;;
22256;SDS011;11297;42.686;23.374;2022-08-04T14:36:37;5.23;;;4.47;;
22256;SDS011;11297;42.686;23.374;2022-08-04T14:39:04;3.67;;;3.20;;
22256;SDS011;11297;42.686;23.374;2022-08-04T14:41:43;3.80;;;3.50;;
22256;SDS011;11297;42.686;23.374;2022-08-04T14:44:10;3.43;;;3.13;;
22256;SDS011;11297;42.686;23.374;2022-08-04T14:46:48;4.07;;;3.67;;
22256;SDS011;11297;42.686;23.374;2022-08-04T14:49:15;3.97;;;3.60;;
22256;SDS011;11297;42.686;23.374;2022-08-04T14:51:45;3.80;;;3.10;;
22256;SDS011;11297;42.686;23.374;2022-08-04T14:54:16;3.43;;;3.13;;
22256;SDS011;11297;42.686;23.374;2022-08-04T14:56:55;4.50;;;3.17;;
22256;SDS011;11297;42.686;23.374;2022-08-04T14:59:24;3.13;;;2.90;;
22256;SDS011;11297;42.686;23.374;2022-08-04T15:01:51;2.80;;;2.60;;
22256;SDS011;11297;42.686;23.374;2022-08-04T15:04:18;3.20;;;3.00;;
22256;SDS011;11297;42.686;23.374;2022-08-04T15:06:47;3.70;;;3.00;;
22256;SDS011;11297;42.686;23.374;2022-08-04T15:09:13;3.53;;;3.27;;
22256;SDS011;11297;42.686;23.374;2022-08-04T15:11:38;3.23;;;3.00;;
22256;SDS011;11297;42.686;23.374;2022-08-04T15:14:04;4.37;;;3.30;;
22256;SDS011;11297;42.686;23.374;2022-08-04T15:16:30;3.53;;;3.23;;
22256;SDS011;11297;42.686;23.374;2022-08-04T15:18:58;4.03;;;3.63;;
22256;SDS011;11297;42.686;23.374;2022-08-04T15:21:24;3.60;;;3.30;;
22256;SDS011;11297;42.686;23.374;2022-08-04T15:23:53;5.93;;;3.40;;
22256;SDS011;11297;42.686;23.374;2022-08-04T15:27:01;4.90;;;3.87;;
22256;SDS011;11297;42.686;23.374;2022-08-04T15:29:15;2.70;;;2.47;;
22256;SDS011;11297;42.686;23.374;2022-08-04T15:31:43;3.87;;;3.57;;
22256;SDS011;11297;42.686;23.374;2022-08-04T15:34:10;3.70;;;3.40;;
22256;SDS011;11297;42.686;23.374;2022-08-04T15:36:55;3.40;;;3.10;;
22256;SDS011;11297;42.686;23.374;2022-08-04T15:45:19;3.37;;;3.07;;
22256;SDS011;11297;42.686;23.374;2022-08-04T15:50:25;4.37;;;3.27;;
22256;SDS011;11297;42.686;23.374;2022-08-04T15:58:07;3.83;;;3.53;;
22256;SDS011;11297;42.686;23.374;2022-08-04T16:05:56;3.73;;;3.30;;
22256;SDS011;11297;42.686;23.374;2022-08-04T16:08:21;4.83;;;3.67;;
22256;SDS011;11297;42.686;23.374;2022-08-04T16:10:47;4.53;;;3.73;;
22256;SDS011;11297;42.686;23.374;2022-08-04T16:13:17;4.03;;;3.10;;
22256;SDS011;11297;42.686;23.374;2022-08-04T16:15:48;4.73;;;3.67;;
22256;SDS011;11297;42.686;23.374;2022-08-04T16:20:56;5.47;;;3.40;;
22256;SDS011;11297;42.686;23.374;2022-08-04T16:26:09;3.67;;;3.37;;
22256;SDS011;11297;42.686;23.374;2022-08-04T16:31:05;20.00;;;9.93;;
22256;SDS011;11297;42.686;23.374;2022-08-04T16:33:35;16.50;;;6.77;;
22256;SDS011;11297;42.686;23.374;2022-08-04T16:36:01;34.13;;;11.93;;
22256;SDS011;11297;42.686;23.374;2022-08-04T16:38:27;9.00;;;5.23;;
22256;SDS011;11297;42.686;23.374;2022-08-04T16:40:54;9.70;;;6.63;;
22256;SDS011;11297;42.686;23.374;2022-08-04T16:43:20;39.97;;;14.97;;
22256;SDS011;11297;42.686;23.374;2022-08-04T16:48:22;13.47;;;8.93;;
22256;SDS011;11297;42.686;23.374;2022-08-04T16:50:54;14.13;;;7.40;;
22256;SDS011;11297;42.686;23.374;2022-08-04T16:53:27;17.50;;;6.97;;
22256;SDS011;11297;42.686;23.374;2022-08-04T16:55:57;11.50;;;6.27;;
22256;SDS011;11297;42.686;23.374;2022-08-04T16:58:27;17.80;;;8.57;;
22256;SDS011;11297;42.686;23.374;2022-08-04T17:00:57;9.40;;;5.70;;
22256;SDS011;11297;42.686;23.374;2022-08-04T17:03:31;11.87;;;5.93;;
22256;SDS011;11297;42.686;23.374;2022-08-04T17:06:06;8.47;;;6.30;;
22256;SDS011;11297;42.686;23.374;2022-08-04T17:08:38;8.40;;;6.23;;
22256;SDS011;11297;42.686;23.374;2022-08-04T17:11:04;7.73;;;5.43;;
22256;SDS011;11297;42.686;23.374;2022-08-04T17:13:32;9.13;;;4.07;;
22256;SDS011;11297;42.686;23.374;2022-08-04T17:16:01;4.10;;;3.17;;
22256;SDS011;11297;42.686;23.374;2022-08-04T17:18:30;5.40;;;3.60;;
22256;SDS011;11297;42.686;23.374;2022-08-04T17:20:59;7.33;;;3.90;;
22256;SDS011;11297;42.686;23.374;2022-08-04T17:23:32;5.20;;;3.70;;
22256;SDS011;11297;42.686;23.374;2022-08-04T17:28:35;5.00;;;4.37;;
22256;SDS011;11297;42.686;23.374;2022-08-04T17:31:02;6.93;;;4.57;;
22256;SDS011;11297;42.686;23.374;2022-08-04T17:33:30;8.00;;;5.43;;
22256;SDS011;11297;42.686;23.374;2022-08-04T17:35:58;5.97;;;3.97;;
22256;SDS011;11297;42.686;23.374;2022-08-04T17:38:32;7.50;;;4.83;;
22256;SDS011;11297;42.686;23.374;2022-08-04T17:41:03;6.40;;;4.93;;
22256;SDS011;11297;42.686;23.374;2022-08-04T17:43:38;6.50;;;4.70;;
22256;SDS011;11297;42.686;23.374;2022-08-04T17:49:02;6.30;;;5.00;;
22256;SDS011;11297;42.686;23.374;2022-08-04T17:51:53;5.43;;;4.73;;
22256;SDS011;11297;42.686;23.374;2022-08-04T17:56:59;7.57;;;4.73;;
22256;SDS011;11297;42.686;23.374;2022-08-04T17:59:26;6.37;;;4.60;;
22256;SDS011;11297;42.686;23.374;2022-08-04T18:01:57;6.23;;;4.43;;
22256;SDS011;11297;42.686;23.374;2022-08-04T18:04:31;5.43;;;4.93;;
22256;SDS011;11297;42.686;23.374;2022-08-04T18:07:10;7.10;;;4.37;;
22256;SDS011;11297;42.686;23.374;2022-08-04T18:09:40;5.50;;;5.00;;
22256;SDS011;11297;42.686;23.374;2022-08-04T18:14:48;4.93;;;4.40;;
22256;SDS011;11297;42.686;23.374;2022-08-04T18:20:00;5.10;;;4.60;;
22256;SDS011;11297;42.686;23.374;2022-08-04T18:22:29;5.53;;;4.13;;
22256;SDS011;11297;42.686;23.374;2022-08-04T18:24:54;4.80;;;4.40;;
22256;SDS011;11297;42.686;23.374;2022-08-04T18:27:21;4.40;;;4.00;;
22256;SDS011;11297;42.686;23.374;2022-08-04T18:29:49;4.30;;;3.90;;
22256;SDS011;11297;42.686;23.374;2022-08-04T18:32:15;5.03;;;4.00;;
22256;SDS011;11297;42.686;23.374;2022-08-04T18:34:40;5.63;;;4.20;;
22256;SDS011;11297;42.686;23.374;2022-08-04T18:37:06;4.90;;;4.43;;
22256;SDS011;11297;42.686;23.374;2022-08-04T18:39:31;5.47;;;4.33;;
22256;SDS011;11297;42.686;23.374;2022-08-04T18:41:58;7.13;;;4.10;;
22256;SDS011;11297;42.686;23.374;2022-08-04T18:44:24;7.93;;;6.83;;
22256;SDS011;11297;42.686;23.374;2022-08-04T18:46:51;80.43;;;73.33;;
22256;SDS011;11297;42.686;23.374;2022-08-04T18:49:17;62.73;;;57.37;;
22256;SDS011;11297;42.686;23.374;2022-08-04T18:51:44;36.20;;;32.90;;
22256;SDS011;11297;42.686;23.374;2022-08-04T18:54:10;41.33;;;37.57;;
22256;SDS011;11297;42.686;23.374;2022-08-04T18:56:35;17.67;;;15.83;;
22256;SDS011;11297;42.686;23.374;2022-08-04T18:59:02;14.63;;;11.53;;
22256;SDS011;11297;42.686;23.374;2022-08-04T19:01:29;12.10;;;10.80;;
22256;SDS011;11297;42.686;23.374;2022-08-04T19:03:55;12.07;;;10.97;;
22256;SDS011;11297;42.686;23.374;2022-08-04T19:06:21;11.07;;;9.67;;
22256;SDS011;11297;42.686;23.374;2022-08-04T19:08:46;10.20;;;9.30;;
22256;SDS011;11297;42.686;23.374;2022-08-04T19:11:12;10.17;;;9.27;;
22256;SDS011;11297;42.686;23.374;2022-08-04T19:13:38;10.43;;;8.37;;
22256;SDS011;11297;42.686;23.374;2022-08-04T19:16:03;9.40;;;8.50;;
22256;SDS011;11297;42.686;23.374;2022-08-04T19:18:29;9.17;;;7.10;;
22256;SDS011;11297;42.686;23.374;2022-08-04T19:20:56;7.90;;;7.10;;
22256;SDS011;11297;42.686;23.374;2022-08-04T19:23:22;10.70;;;6.70;;
22256;SDS011;11297;42.686;23.374;2022-08-04T19:25:48;9.53;;;7.00;;
22256;SDS011;11297;42.686;23.374;2022-08-04T19:28:14;9.37;;;7.60;;
22256;SDS011;11297;42.686;23.374;2022-08-04T19:30:40;11.00;;;7.70;;
22256;SDS011;11297;42.686;23.374;2022-08-04T19:33:06;8.73;;;7.33;;
22256;SDS011;11297;42.686;23.374;2022-08-04T19:35:31;7.37;;;6.67;;